createdAt,value
2019-03-06T00:00:52.176Z,95658.70
2019-03-06T00:03:24.947Z,95662.09
2019-03-06T00:05:56.144Z,95666.89
2019-03-06T00:08:27.176Z,95664.77
2019-03-06T00:10:58.473Z,95673.43
2019-03-06T00:13:33.949Z,95669.48
2019-03-06T00:16:06.452Z,95659.20
2019-03-06T00:18:37.346Z,95668.16
2019-03-06T00:21:08.241Z,95669.02
2019-03-06T00:23:41.125Z,95668.38
2019-03-06T00:26:15.145Z,95671.88
2019-03-06T00:28:46.491Z,95676.81
2019-03-06T00:31:18.069Z,95682.90
2019-03-06T00:33:49.551Z,95679.03
2019-03-06T00:36:28.417Z,95675.20
2019-03-06T00:39:01.564Z,95684.95
2019-03-06T00:41:47.272Z,95674.69
2019-03-06T00:44:18.102Z,95682.81
2019-03-06T00:46:48.918Z,95679.58
2019-03-06T00:49:19.797Z,95684.56
2019-03-06T00:51:50.712Z,95681.92
2019-03-06T00:54:21.677Z,95677.47
2019-03-06T00:56:54.362Z,95681.13
2019-03-06T00:59:25.171Z,95678.22
2019-03-06T01:01:56.089Z,95683.11
2019-03-06T01:04:26.921Z,95686.05
2019-03-06T01:06:57.942Z,95685.24
2019-03-06T01:09:31.894Z,95674.69
2019-03-06T01:12:03.002Z,95672.86
2019-03-06T01:14:33.935Z,95673.20
2019-03-06T01:17:05.126Z,95673.71
2019-03-06T01:19:35.932Z,95666.70
2019-03-06T01:22:14.234Z,95670.35
2019-03-06T01:24:45.108Z,95668.73
2019-03-06T01:27:16.029Z,95664.05
2019-03-06T01:29:46.893Z,95670.52
2019-03-06T01:32:17.838Z,95665.45
2019-03-06T01:35:27.111Z,95665.45
2019-03-06T01:38:24.742Z,95658.34
2019-03-06T01:41:03.601Z,95662.22
2019-03-06T01:43:44.142Z,95656.14
2019-03-06T01:46:14.939Z,95649.25
2019-03-06T01:48:46.052Z,95649.55
2019-03-06T01:51:17.935Z,95650.35
2019-03-06T01:53:49.832Z,95644.86
2019-03-06T01:56:20.664Z,95644.44
2019-03-06T01:58:51.490Z,95645.67
2019-03-06T02:01:22.386Z,95644.65
2019-03-06T02:03:53.509Z,95648.02
2019-03-06T02:06:24.393Z,95646.61
2019-03-06T02:08:55.257Z,95646.48
2019-03-06T02:11:27.639Z,95641.05
2019-03-06T02:13:58.957Z,95643.69
2019-03-06T02:16:29.995Z,95644.44
2019-03-06T02:19:00.790Z,95643.76
2019-03-06T02:21:31.622Z,95649.55
2019-03-06T02:24:02.501Z,95647.72
2019-03-06T02:26:35.007Z,95646.70
2019-03-06T02:29:05.847Z,95646.47
2019-03-06T02:31:37.195Z,95653.11
2019-03-06T02:34:08.060Z,95655.98
2019-03-06T02:36:39.009Z,95653.34
2019-03-06T02:39:09.933Z,95655.47
2019-03-06T02:41:41.167Z,95652.68
2019-03-06T02:44:12.088Z,95651.36
2019-03-06T02:46:42.902Z,95650.77
2019-03-06T02:49:14.079Z,95655.83
2019-03-06T02:51:44.965Z,95646.89
2019-03-06T02:54:15.788Z,95651.95
2019-03-06T02:56:46.655Z,95644.70
2019-03-06T02:59:45.374Z,95644.99
2019-03-06T03:02:36.039Z,95639.88
2019-03-06T03:05:23.987Z,95636.22
2019-03-06T03:07:55.384Z,95636.64
2019-03-06T03:10:26.282Z,95642.22
2019-03-06T03:12:58.140Z,95648.14
2019-03-06T03:15:28.994Z,95640.47
2019-03-06T03:17:59.877Z,95645.80
2019-03-06T03:20:30.787Z,95643.97
2019-03-06T03:23:01.668Z,95640.53
2019-03-06T03:25:33.055Z,95639.00
2019-03-06T03:28:04.019Z,95635.47
2019-03-06T03:30:35.086Z,95631.98
2019-03-06T03:33:06.029Z,95637.17
2019-03-06T03:35:36.989Z,95629.98
2019-03-06T03:38:10.159Z,95627.21
2019-03-06T03:40:41.117Z,95628.23
2019-03-06T03:43:12.078Z,95626.32
2019-03-06T03:45:45.530Z,95620.11
2019-03-06T03:48:16.354Z,95623.61
2019-03-06T03:50:47.503Z,95615.99
2019-03-06T03:53:18.534Z,95618.20
2019-03-06T03:55:49.412Z,95611.31
2019-03-06T03:58:20.733Z,95610.20
2019-03-06T04:00:51.642Z,95621.22
2019-03-06T04:03:22.510Z,95619.14
2019-03-06T04:05:53.316Z,95612.28
2019-03-06T04:08:24.143Z,95607.95
2019-03-06T04:10:55.068Z,95600.47
2019-03-06T04:13:25.940Z,95602.16
2019-03-06T04:15:56.806Z,95588.09
2019-03-06T04:18:27.723Z,95591.02
2019-03-06T04:20:58.921Z,95587.13
2019-03-06T04:23:29.813Z,95584.91
2019-03-06T04:26:00.713Z,95580.87
2019-03-06T04:28:31.575Z,95586.52
2019-03-06T04:31:02.422Z,95587.33
2019-03-06T04:33:33.551Z,95583.67
2019-03-06T04:36:04.442Z,95587.17
2019-03-06T04:38:35.698Z,95580.23
2019-03-06T04:41:06.557Z,95571.58
2019-03-06T04:43:37.409Z,95571.16
2019-03-06T04:46:08.269Z,95567.07
2019-03-06T04:48:40.665Z,95562.82
2019-03-06T04:51:13.079Z,95569.48
2019-03-06T04:53:44.465Z,95565.45
2019-03-06T04:56:18.895Z,95571.44
2019-03-06T04:58:49.796Z,95577.22
2019-03-06T05:01:20.926Z,95579.48
2019-03-06T05:03:51.832Z,95593.16
2019-03-06T05:06:22.693Z,95597.70
2019-03-06T05:08:53.946Z,95593.13
2019-03-06T05:11:24.823Z,95593.34
2019-03-06T05:13:55.685Z,95595.05
2019-03-06T05:16:45.581Z,95595.98
2019-03-06T05:19:16.441Z,95591.13
2019-03-06T05:21:47.353Z,95594.44
2019-03-06T05:24:18.262Z,95593.03
2019-03-06T05:28:02.512Z,95593.84
2019-03-06T05:31:19.536Z,95586.88
2019-03-06T05:33:56.248Z,95582.70
2019-03-06T05:37:05.510Z,95580.37
2019-03-06T05:39:41.390Z,95575.41
2019-03-06T05:42:12.434Z,95575.70
2019-03-06T05:44:43.521Z,95571.75
2019-03-06T05:47:30.626Z,95562.14
2019-03-06T05:50:01.487Z,95576.81
2019-03-06T05:52:33.067Z,95571.53
2019-03-06T05:55:03.941Z,95574.09
2019-03-06T05:57:35.545Z,95577.92
2019-03-06T06:00:08.839Z,95581.41
2019-03-06T06:02:40.436Z,95579.58
2019-03-06T06:05:28.400Z,95577.24
2019-03-06T06:08:21.489Z,95576.90
2019-03-06T06:11:01.922Z,95572.64
2019-03-06T06:13:32.820Z,95562.17
2019-03-06T06:16:03.734Z,95562.95
2019-03-06T06:18:34.991Z,95553.38
2019-03-06T06:21:23.227Z,95555.06
2019-03-06T06:23:57.792Z,95542.95
2019-03-06T06:26:29.053Z,95538.56
2019-03-06T06:29:03.116Z,95530.80
2019-03-06T06:31:33.954Z,95527.70
2019-03-06T06:34:06.699Z,95523.20
2019-03-06T06:36:37.568Z,95520.76
2019-03-06T06:39:08.518Z,95514.09
2019-03-06T06:41:39.822Z,95512.45
2019-03-06T06:44:10.699Z,95511.54
2019-03-06T06:46:41.939Z,95513.92
2019-03-06T06:49:12.970Z,95515.90
2019-03-06T06:52:22.363Z,95517.69
2019-03-06T06:55:52.286Z,95526.02
2019-03-06T06:58:43.579Z,95521.13
2019-03-06T07:02:30.416Z,95508.13
2019-03-06T07:05:33.170Z,95512.65
2019-03-06T07:08:32.171Z,95521.88
2019-03-06T07:11:21.883Z,95525.55
2019-03-06T07:14:23.489Z,95540.08
2019-03-06T07:17:16.098Z,95539.27
2019-03-06T07:20:11.649Z,95544.89
2019-03-06T07:23:11.469Z,95546.36
2019-03-06T07:25:57.363Z,95548.18
2019-03-06T07:28:46.531Z,95540.17
2019-03-06T07:31:43.543Z,95541.48
2019-03-06T07:34:54.532Z,95540.89
2019-03-06T07:37:46.259Z,95526.66
2019-03-06T07:40:24.121Z,95509.41
2019-03-06T07:43:02.575Z,95509.49
2019-03-06T07:46:05.882Z,95497.49
2019-03-06T07:49:12.212Z,95493.66
2019-03-06T07:54:56.329Z,95479.93
2019-03-06T07:58:17.689Z,95465.76
2019-03-06T08:00:49.120Z,95449.76
2019-03-06T08:03:46.067Z,95451.77
2019-03-06T08:06:16.983Z,95449.47
2019-03-06T08:08:55.044Z,95447.72
2019-03-06T08:11:33.634Z,95446.80
2019-03-06T08:14:23.370Z,95439.19
2019-03-06T08:17:15.660Z,95437.52
2019-03-06T08:20:21.121Z,95443.30
2019-03-06T08:23:10.948Z,95442.60
2019-03-06T08:25:48.630Z,95451.64
2019-03-06T08:28:25.278Z,95445.02
2019-03-06T08:31:15.273Z,95442.98
2019-03-06T08:33:46.117Z,95440.15
2019-03-06T08:36:18.271Z,95432.48
2019-03-06T08:38:55.431Z,95440.72
2019-03-06T08:41:26.544Z,95447.45
2019-03-06T08:44:02.752Z,95450.20
2019-03-06T08:46:55.034Z,95444.00
2019-03-06T08:50:00.364Z,95449.40
2019-03-06T08:52:58.846Z,95448.59
2019-03-06T08:55:46.527Z,95439.91
2019-03-06T08:58:45.127Z,95444.98
2019-03-06T09:02:00.903Z,95445.31
2019-03-06T09:04:53.599Z,95438.13
2019-03-06T09:07:47.473Z,95438.09
2019-03-06T09:10:46.041Z,95436.56
2019-03-06T09:13:44.215Z,95430.25
2019-03-06T09:16:35.261Z,95435.22
2019-03-06T09:19:31.148Z,95433.95
2019-03-06T09:22:23.118Z,95424.88
2019-03-06T09:25:05.390Z,95430.49
2019-03-06T09:27:43.651Z,95418.89
2019-03-06T09:30:31.262Z,95412.41
2019-03-06T09:33:11.162Z,95405.30
2019-03-06T09:36:10.948Z,95397.86
2019-03-06T09:39:13.099Z,95388.91
2019-03-06T09:42:04.335Z,95392.41
2019-03-06T09:45:09.433Z,95394.00
2019-03-06T09:47:59.481Z,95393.36
2019-03-06T09:51:17.711Z,95386.34
2019-03-06T09:54:20.862Z,95389.40
2019-03-06T09:57:17.588Z,95388.76
2019-03-06T10:00:10.979Z,95382.94
2019-03-06T10:03:06.046Z,95374.48
2019-03-06T10:06:03.397Z,95371.30
2019-03-06T10:08:47.975Z,95370.75
2019-03-06T10:11:42.967Z,95388.88
2019-03-06T10:14:33.246Z,95376.89
2019-03-06T10:17:19.643Z,95381.48
2019-03-06T10:19:56.948Z,95389.96
2019-03-06T10:22:29.607Z,95381.18
2019-03-06T10:25:01.570Z,95385.70
2019-03-06T10:27:36.784Z,95387.24
2019-03-06T10:30:10.501Z,95385.28
2019-03-06T10:32:41.538Z,95378.56
2019-03-06T10:35:15.478Z,95363.69
2019-03-06T10:37:46.453Z,95371.76
2019-03-06T10:40:18.434Z,95364.91
2019-03-06T10:42:49.492Z,95364.45
2019-03-06T10:45:20.482Z,95363.92
2019-03-06T10:47:53.461Z,95347.27
2019-03-06T10:50:26.641Z,95355.33
2019-03-06T10:52:57.228Z,95351.53
2019-03-06T10:55:28.938Z,95356.08
2019-03-06T10:58:00.431Z,95339.55
2019-03-06T11:00:34.133Z,95335.36
2019-03-06T11:03:07.444Z,95346.86
2019-03-06T11:05:42.568Z,95347.19
2019-03-06T11:08:16.865Z,95350.55
2019-03-06T11:10:48.979Z,95334.88
2019-03-06T11:13:21.082Z,95329.52
2019-03-06T11:15:56.883Z,95313.78
2019-03-06T11:18:29.146Z,95317.66
2019-03-06T11:21:03.332Z,95308.20
2019-03-06T11:23:43.979Z,95301.76
2019-03-06T11:26:21.403Z,95296.72
2019-03-06T11:29:14.952Z,95302.54
2019-03-06T11:31:57.318Z,95293.47
2019-03-06T11:34:28.477Z,95291.61
2019-03-06T11:36:59.408Z,95281.15
2019-03-06T11:39:30.401Z,95286.44
2019-03-06T11:42:07.541Z,95276.80
2019-03-06T11:44:41.460Z,95268.61
2019-03-06T11:47:12.542Z,95254.86
2019-03-06T11:49:47.114Z,95253.62
2019-03-06T11:52:18.125Z,95250.52
2019-03-06T11:54:50.855Z,95237.73
2019-03-06T11:57:22.236Z,95229.69
2019-03-06T11:59:55.052Z,95219.81
2019-03-06T12:02:25.928Z,95219.79
2019-03-06T12:04:57.474Z,95217.13
2019-03-06T12:07:35.966Z,95216.84
2019-03-06T12:10:10.333Z,95220.17
2019-03-06T12:12:56.442Z,95219.72
2019-03-06T12:15:31.038Z,95226.71
2019-03-06T12:18:01.917Z,95221.64
2019-03-06T12:20:35.873Z,95210.41
2019-03-06T12:23:07.463Z,95205.31
2019-03-06T12:25:40.338Z,95205.69
2019-03-06T12:28:14.101Z,95189.92
2019-03-06T12:31:02.172Z,95208.58
2019-03-06T12:33:33.048Z,95189.20
2019-03-06T12:36:11.171Z,95180.25
2019-03-06T12:39:00.685Z,95174.66
2019-03-06T12:41:19.085Z,95158.72
2019-03-06T12:43:53.286Z,95153.06
2019-03-06T12:46:35.115Z,95157.36
2019-03-06T12:49:20.928Z,95139.69
2019-03-06T12:51:54.736Z,95135.84
2019-03-06T12:54:26.803Z,95132.47
2019-03-06T12:56:59.264Z,95119.75
2019-03-06T12:59:33.933Z,95107.98
2019-03-06T13:02:04.704Z,95111.46
2019-03-06T13:04:41.335Z,95109.84
2019-03-06T13:07:18.020Z,95106.28
2019-03-06T13:09:50.873Z,95098.62
2019-03-06T13:12:24.993Z,95105.73
2019-03-06T13:14:56.851Z,95091.84
2019-03-06T13:17:29.151Z,95094.60
2019-03-06T13:20:00.188Z,95085.46
2019-03-06T13:22:33.000Z,95083.23
2019-03-06T13:25:03.919Z,95073.76
2019-03-06T13:27:34.773Z,95082.18
2019-03-06T13:30:06.648Z,95073.74
2019-03-06T13:33:08.390Z,95075.56
2019-03-06T13:35:39.686Z,95068.09
2019-03-06T13:38:11.600Z,95052.77
2019-03-06T13:40:42.545Z,95051.23
2019-03-06T13:43:13.443Z,95052.28
2019-03-06T13:45:50.909Z,95039.19
2019-03-06T13:48:22.493Z,95037.20
2019-03-06T13:50:55.051Z,95031.98
2019-03-06T13:53:27.744Z,95022.86
2019-03-06T13:55:58.679Z,95020.62
2019-03-06T13:58:29.575Z,95012.45
2019-03-06T14:01:00.923Z,95011.89
2019-03-06T14:03:34.320Z,95009.14
2019-03-06T14:06:05.582Z,95000.34
2019-03-06T14:08:37.357Z,95007.44
2019-03-06T14:11:09.781Z,94992.02
2019-03-06T14:13:40.673Z,94988.00
2019-03-06T14:16:11.490Z,94993.57
2019-03-06T14:18:42.555Z,94982.64
2019-03-06T14:21:13.465Z,94981.37
2019-03-06T14:23:44.454Z,94970.05
2019-03-06T14:26:15.361Z,94975.58
2019-03-06T14:29:22.902Z,94963.05
2019-03-06T14:31:54.242Z,94961.72
2019-03-06T14:34:26.958Z,94956.53
2019-03-06T14:37:06.838Z,94957.48
2019-03-06T14:39:43.655Z,94964.32
2019-03-06T14:42:14.636Z,94957.44
2019-03-06T14:44:46.259Z,94946.97
2019-03-06T14:47:17.471Z,94934.45
2019-03-06T14:49:52.034Z,94927.25
2019-03-06T14:52:23.018Z,94932.47
2019-03-06T14:54:56.032Z,94934.57
2019-03-06T14:57:27.119Z,94930.80
2019-03-06T15:00:11.646Z,94925.44
2019-03-06T15:02:58.933Z,94918.77
2019-03-06T15:05:30.011Z,94924.85
2019-03-06T15:08:02.197Z,94923.13
2019-03-06T15:10:42.754Z,94916.89
2019-03-06T15:13:08.792Z,94911.66
2019-03-06T15:15:44.367Z,94910.02
2019-03-06T15:18:15.876Z,94906.92
2019-03-06T15:20:46.797Z,94901.29
2019-03-06T15:23:17.565Z,94891.19
2019-03-06T15:25:48.459Z,94893.70
2019-03-06T15:28:22.496Z,94885.73
2019-03-06T15:31:00.004Z,94884.48
2019-03-06T15:33:48.610Z,94886.98
2019-03-06T15:36:24.611Z,94882.80
2019-03-06T15:38:56.138Z,94871.70
2019-03-06T15:41:27.468Z,94873.34
2019-03-06T15:43:59.700Z,94866.98
2019-03-06T15:46:30.881Z,94861.66
2019-03-06T15:49:03.337Z,94851.26
2019-03-06T15:51:38.684Z,94852.85
2019-03-06T15:54:12.660Z,94849.70
2019-03-06T15:56:52.144Z,94847.87
2019-03-06T15:59:24.563Z,94841.55
2019-03-06T16:02:05.350Z,94844.25
2019-03-06T16:04:38.874Z,94837.58
2019-03-06T16:07:22.817Z,94837.31
2019-03-06T16:10:23.667Z,94843.76
2019-03-06T16:13:10.873Z,94842.94
2019-03-06T16:15:45.041Z,94841.94
2019-03-06T16:18:20.394Z,94837.23
2019-03-06T16:20:51.422Z,94836.92
2019-03-06T16:23:24.292Z,94840.93
2019-03-06T16:25:59.065Z,94833.77
2019-03-06T16:28:32.543Z,94833.18
2019-03-06T16:31:03.745Z,94828.38
2019-03-06T16:33:50.745Z,94822.55
2019-03-06T16:36:21.715Z,94818.06
2019-03-06T16:38:55.056Z,94805.02
2019-03-06T16:41:29.145Z,94803.20
2019-03-06T16:44:04.773Z,94811.77
2019-03-06T16:46:38.682Z,94804.81
2019-03-06T16:49:15.675Z,94813.89
2019-03-06T16:51:46.960Z,94809.45
2019-03-06T16:54:19.964Z,94801.39
2019-03-06T16:56:54.019Z,94810.73
2019-03-06T16:59:27.519Z,94803.06
2019-03-06T17:02:06.590Z,94798.52
2019-03-06T17:04:43.829Z,94800.13
2019-03-06T17:07:18.464Z,94796.13
2019-03-06T17:09:49.915Z,94793.48
2019-03-06T17:12:21.211Z,94785.50
2019-03-06T17:14:54.094Z,94783.88
2019-03-06T17:17:25.051Z,94784.14
2019-03-06T17:19:57.620Z,94780.66
2019-03-06T17:22:35.216Z,94776.91
2019-03-06T17:25:06.575Z,94779.86
2019-03-06T17:27:52.361Z,94772.93
2019-03-06T17:30:40.945Z,94776.95
2019-03-06T17:33:34.247Z,94774.01
2019-03-06T17:36:05.392Z,94778.53
2019-03-06T17:38:38.571Z,94780.23
2019-03-06T17:41:10.167Z,94788.52
2019-03-06T17:43:50.890Z,94783.47
2019-03-06T17:46:24.139Z,94781.08
2019-03-06T17:49:01.292Z,94777.88
2019-03-06T17:51:32.793Z,94774.66
2019-03-06T17:54:03.869Z,94761.86
2019-03-06T17:56:36.456Z,94761.12
2019-03-06T17:59:07.884Z,94761.33
2019-03-06T18:01:42.783Z,94754.17
2019-03-06T18:04:27.809Z,94752.60
2019-03-06T18:07:00.173Z,94749.11
2019-03-06T18:09:31.597Z,94748.63
2019-03-06T18:12:06.509Z,94750.52
2019-03-06T18:14:39.487Z,94752.16
2019-03-06T18:17:12.283Z,94744.70
2019-03-06T18:19:51.592Z,94744.95
2019-03-06T18:22:25.258Z,94750.52
2019-03-06T18:25:01.727Z,94751.36
2019-03-06T18:27:36.660Z,94744.97
2019-03-06T18:30:09.228Z,94751.69
2019-03-06T18:32:43.719Z,94745.61
2019-03-06T18:35:16.659Z,94739.69
2019-03-06T18:37:48.545Z,94744.22
2019-03-06T18:40:20.514Z,94741.53
2019-03-06T18:42:54.901Z,94737.86
2019-03-06T18:45:26.485Z,94735.69
2019-03-06T18:47:58.433Z,94729.06
2019-03-06T18:50:36.535Z,94723.14
2019-03-06T18:53:08.155Z,94724.20
2019-03-06T18:55:56.165Z,94719.14
2019-03-06T18:58:24.311Z,94718.09
2019-03-06T19:01:01.063Z,94706.66
2019-03-06T19:03:43.953Z,94704.02
2019-03-06T19:06:17.036Z,94698.09
2019-03-06T19:08:48.617Z,94698.88
2019-03-06T19:11:24.955Z,94693.24
2019-03-06T19:14:05.599Z,94684.47
2019-03-06T19:16:40.354Z,94677.60
2019-03-06T19:19:14.792Z,94672.03
2019-03-06T19:21:47.462Z,94681.11
2019-03-06T19:24:30.420Z,94673.98
2019-03-06T19:27:07.316Z,94672.65
2019-03-06T19:29:38.940Z,94664.97
2019-03-06T19:32:11.980Z,94657.56
2019-03-06T19:34:49.726Z,94661.87
2019-03-06T19:37:26.753Z,94657.35
2019-03-06T19:40:09.439Z,94651.32
2019-03-06T19:42:44.015Z,94655.34
2019-03-06T19:45:20.243Z,94650.80
2019-03-06T19:47:59.540Z,94650.87
2019-03-06T19:50:37.012Z,94640.28
2019-03-06T19:53:16.742Z,94641.91
2019-03-06T19:55:54.749Z,94641.09
2019-03-06T19:58:29.753Z,94641.25
2019-03-06T20:01:06.748Z,94642.92
2019-03-06T20:03:38.234Z,94634.91
2019-03-06T20:06:26.579Z,94637.75
2019-03-06T20:08:50.679Z,94626.30
2019-03-06T20:11:22.748Z,94622.54
2019-03-06T20:13:54.153Z,94626.53
2019-03-06T20:16:25.748Z,94623.63
2019-03-06T20:18:57.542Z,94612.16
2019-03-06T20:21:43.699Z,94617.25
2019-03-06T20:24:21.618Z,94615.90
2019-03-06T20:26:55.608Z,94606.31
2019-03-06T20:29:36.966Z,94610.80
2019-03-06T20:32:09.880Z,94603.04
2019-03-06T20:34:46.181Z,94599.54
2019-03-06T20:37:17.590Z,94595.27
2019-03-06T20:39:49.341Z,94601.11
2019-03-06T20:42:20.725Z,94600.52
2019-03-06T20:44:55.940Z,94604.16
2019-03-06T20:47:29.484Z,94603.91
2019-03-06T20:50:01.056Z,94604.45
2019-03-06T20:52:34.408Z,94592.42
2019-03-06T20:55:06.075Z,94599.84
2019-03-06T20:57:37.953Z,94600.91
2019-03-06T21:00:23.340Z,94600.38
2019-03-06T21:02:58.353Z,94587.07
2019-03-06T21:05:29.848Z,94580.25
2019-03-06T21:08:01.330Z,94591.98
2019-03-06T21:10:33.124Z,94579.73
2019-03-06T21:13:13.988Z,94576.07
2019-03-06T21:15:50.216Z,94584.11
2019-03-06T21:18:24.942Z,94581.27
2019-03-06T21:21:25.070Z,94582.08
2019-03-06T21:24:02.663Z,94579.92
2019-03-06T21:26:39.131Z,94581.08
2019-03-06T21:29:13.682Z,94582.43
2019-03-06T21:31:45.490Z,94578.97
2019-03-06T21:34:27.785Z,94582.16
2019-03-06T21:37:04.669Z,94578.20
2019-03-06T21:39:36.690Z,94585.41
2019-03-06T21:42:29.923Z,94573.80
2019-03-06T21:45:01.389Z,94566.94
2019-03-06T21:47:33.233Z,94573.63
2019-03-06T21:50:04.664Z,94561.16
2019-03-06T21:52:39.704Z,94553.73
2019-03-06T21:55:12.868Z,94558.30
2019-03-06T21:57:49.848Z,94569.79
2019-03-06T22:00:21.778Z,94566.97
2019-03-06T22:02:59.253Z,94559.24
2019-03-06T22:05:39.213Z,94565.10
2019-03-06T22:08:10.387Z,94554.73
2019-03-06T22:10:44.471Z,94560.31
2019-03-06T22:13:18.968Z,94559.83
2019-03-06T22:15:49.801Z,94563.56
2019-03-06T22:18:20.595Z,94560.94
2019-03-06T22:20:51.384Z,94553.23
2019-03-06T22:23:22.615Z,94548.77
2019-03-06T22:25:53.460Z,94548.75
2019-03-06T22:28:24.413Z,94550.87
2019-03-06T22:30:55.719Z,94537.79
2019-03-06T22:33:26.553Z,94544.41
2019-03-06T22:35:57.400Z,94542.75
2019-03-06T22:38:29.033Z,94535.00
2019-03-06T22:41:00.402Z,94546.16
2019-03-06T22:43:31.529Z,94537.10
2019-03-06T22:46:03.048Z,94529.83
2019-03-06T22:48:38.743Z,94526.08
2019-03-06T22:51:11.023Z,94524.64
2019-03-06T22:53:41.870Z,94529.16
2019-03-06T22:56:12.774Z,94519.85
2019-03-06T22:58:50.564Z,94524.36
2019-03-06T23:01:34.176Z,94527.23
2019-03-06T23:04:10.614Z,94531.18
2019-03-06T23:06:42.445Z,94524.23
2019-03-06T23:09:14.250Z,94517.23
2019-03-06T23:11:45.500Z,94508.94
2019-03-06T23:14:16.991Z,94512.12
2019-03-06T23:16:47.861Z,94511.86
2019-03-06T23:19:18.971Z,94504.99
2019-03-06T23:21:49.843Z,94497.87
2019-03-06T23:24:20.585Z,94498.72
2019-03-06T23:26:52.388Z,94491.86
2019-03-06T23:29:24.065Z,94498.56
2019-03-06T23:31:55.941Z,94499.41
2019-03-06T23:34:27.252Z,94496.19
2019-03-06T23:36:59.677Z,94493.04
2019-03-06T23:39:30.909Z,94491.70
2019-03-06T23:42:03.571Z,94485.22
2019-03-06T23:44:34.395Z,94484.92
2019-03-06T23:47:05.298Z,94483.08
2019-03-06T23:49:37.873Z,94490.27
2019-03-06T23:52:26.678Z,94479.89
2019-03-06T23:54:57.592Z,94491.86
2019-03-06T23:57:33.337Z,94486.86
